sensor_id;sensor_type;location;lat;lon;timestamp;pressure;altitude;pressure_sealevel;temperature
13570;BMP180;6856;51.460;7.158;2023-12-20T00:01:29;100250.00;;;12.10
13570;BMP180;6856;51.460;7.158;2023-12-20T00:04:03;100243.00;;;12.10
13570;BMP180;6856;51.460;7.158;2023-12-20T00:06:38;100242.00;;;12.10
13570;BMP180;6856;51.460;7.158;2023-12-20T00:09:12;100242.00;;;12.00
13570;BMP180;6856;51.460;7.158;2023-12-20T00:11:47;100250.00;;;12.00
13570;BMP180;6856;51.460;7.158;2023-12-20T00:14:22;100253.00;;;12.00
13570;BMP180;6856;51.460;7.158;2023-12-20T00:16:57;100236.00;;;12.00
13570;BMP180;6856;51.460;7.158;2023-12-20T00:19:30;100250.00;;;12.00
13570;BMP180;6856;51.460;7.158;2023-12-20T00:22:04;100244.00;;;12.00
13570;BMP180;6856;51.460;7.158;2023-12-20T00:24:40;100251.00;;;11.90
13570;BMP180;6856;51.460;7.158;2023-12-20T00:27:14;100256.00;;;11.90
13570;BMP180;6856;51.460;7.158;2023-12-20T00:29:50;100248.00;;;11.90
13570;BMP180;6856;51.460;7.158;2023-12-20T00:32:23;100254.00;;;11.90
13570;BMP180;6856;51.460;7.158;2023-12-20T00:34:58;100253.00;;;11.90
13570;BMP180;6856;51.460;7.158;2023-12-20T00:37:32;100274.00;;;11.80
13570;BMP180;6856;51.460;7.158;2023-12-20T00:40:07;100269.00;;;11.80
13570;BMP180;6856;51.460;7.158;2023-12-20T00:42:41;100270.00;;;11.80
13570;BMP180;6856;51.460;7.158;2023-12-20T00:45:18;100267.00;;;11.80
13570;BMP180;6856;51.460;7.158;2023-12-20T00:47:51;100273.00;;;11.80
13570;BMP180;6856;51.460;7.158;2023-12-20T00:50:26;100282.00;;;11.80
13570;BMP180;6856;51.460;7.158;2023-12-20T00:53:01;100274.00;;;11.70
13570;BMP180;6856;51.460;7.158;2023-12-20T00:55:35;100290.00;;;11.70
13570;BMP180;6856;51.460;7.158;2023-12-20T00:58:09;100290.00;;;11.70
13570;BMP180;6856;51.460;7.158;2023-12-20T01:00:49;100291.00;;;11.70
13570;BMP180;6856;51.460;7.158;2023-12-20T01:03:23;100285.00;;;11.70
13570;BMP180;6856;51.460;7.158;2023-12-20T01:05:58;100286.00;;;11.60
13570;BMP180;6856;51.460;7.158;2023-12-20T01:08:32;100283.00;;;11.60
13570;BMP180;6856;51.460;7.158;2023-12-20T01:11:07;100275.00;;;11.60
13570;BMP180;6856;51.460;7.158;2023-12-20T01:13:42;100268.00;;;11.60
13570;BMP180;6856;51.460;7.158;2023-12-20T01:16:18;100286.00;;;11.60
13570;BMP180;6856;51.460;7.158;2023-12-20T01:18:52;100277.00;;;11.60
13570;BMP180;6856;51.460;7.158;2023-12-20T01:21:25;100275.00;;;11.50
13570;BMP180;6856;51.460;7.158;2023-12-20T01:24:01;100288.00;;;11.50
13570;BMP180;6856;51.460;7.158;2023-12-20T01:26:36;100296.00;;;11.50
13570;BMP180;6856;51.460;7.158;2023-12-20T01:29:10;100294.00;;;11.50
13570;BMP180;6856;51.460;7.158;2023-12-20T01:31:46;100295.00;;;11.50
13570;BMP180;6856;51.460;7.158;2023-12-20T01:34:20;100304.00;;;11.50
13570;BMP180;6856;51.460;7.158;2023-12-20T01:36:59;100302.00;;;11.50
13570;BMP180;6856;51.460;7.158;2023-12-20T01:39:33;100293.00;;;11.40
13570;BMP180;6856;51.460;7.158;2023-12-20T01:42:07;100305.00;;;11.40
13570;BMP180;6856;51.460;7.158;2023-12-20T01:44:41;100292.00;;;11.40
13570;BMP180;6856;51.460;7.158;2023-12-20T01:47:19;100305.00;;;11.40
13570;BMP180;6856;51.460;7.158;2023-12-20T01:49:54;100305.00;;;11.40
13570;BMP180;6856;51.460;7.158;2023-12-20T01:52:29;100304.00;;;11.30
13570;BMP180;6856;51.460;7.158;2023-12-20T01:55:07;100298.00;;;11.30
13570;BMP180;6856;51.460;7.158;2023-12-20T01:57:47;100295.00;;;11.30
13570;BMP180;6856;51.460;7.158;2023-12-20T02:00:23;100285.00;;;11.30
13570;BMP180;6856;51.460;7.158;2023-12-20T02:03:02;100294.00;;;11.30
13570;BMP180;6856;51.460;7.158;2023-12-20T02:05:38;100299.00;;;11.30
13570;BMP180;6856;51.460;7.158;2023-12-20T02:08:13;100288.00;;;11.30
13570;BMP180;6856;51.460;7.158;2023-12-20T02:10:47;100290.00;;;11.30
13570;BMP180;6856;51.460;7.158;2023-12-20T02:13:21;100291.00;;;11.30
13570;BMP180;6856;51.460;7.158;2023-12-20T02:15:55;100301.00;;;11.30
13570;BMP180;6856;51.460;7.158;2023-12-20T02:18:31;100293.00;;;11.20
13570;BMP180;6856;51.460;7.158;2023-12-20T02:21:05;100299.00;;;11.20
13570;BMP180;6856;51.460;7.158;2023-12-20T02:23:41;100292.00;;;11.20
13570;BMP180;6856;51.460;7.158;2023-12-20T02:26:14;100293.00;;;11.20
13570;BMP180;6856;51.460;7.158;2023-12-20T02:28:49;100292.00;;;11.20
13570;BMP180;6856;51.460;7.158;2023-12-20T02:31:24;100287.00;;;11.10
13570;BMP180;6856;51.460;7.158;2023-12-20T02:33:58;100295.00;;;11.10
13570;BMP180;6856;51.460;7.158;2023-12-20T02:36:32;100288.00;;;11.10
13570;BMP180;6856;51.460;7.158;2023-12-20T02:39:07;100295.00;;;11.10
13570;BMP180;6856;51.460;7.158;2023-12-20T02:41:41;100300.00;;;11.10
13570;BMP180;6856;51.460;7.158;2023-12-20T02:44:15;100295.00;;;11.10
13570;BMP180;6856;51.460;7.158;2023-12-20T02:46:49;100298.00;;;11.10
13570;BMP180;6856;51.460;7.158;2023-12-20T02:49:23;100293.00;;;11.10
13570;BMP180;6856;51.460;7.158;2023-12-20T02:51:57;100294.00;;;11.10
13570;BMP180;6856;51.460;7.158;2023-12-20T02:54:33;100278.00;;;11.00
13570;BMP180;6856;51.460;7.158;2023-12-20T02:57:06;100298.00;;;11.00
13570;BMP180;6856;51.460;7.158;2023-12-20T02:59:41;100296.00;;;11.00
13570;BMP180;6856;51.460;7.158;2023-12-20T03:02:15;100302.00;;;11.00
13570;BMP180;6856;51.460;7.158;2023-12-20T03:04:50;100300.00;;;11.00
13570;BMP180;6856;51.460;7.158;2023-12-20T03:07:24;100281.00;;;11.00
13570;BMP180;6856;51.460;7.158;2023-12-20T03:10:01;100296.00;;;11.00
13570;BMP180;6856;51.460;7.158;2023-12-20T03:12:51;100294.00;;;11.00
13570;BMP180;6856;51.460;7.158;2023-12-20T03:15:25;100293.00;;;10.90
13570;BMP180;6856;51.460;7.158;2023-12-20T03:18:00;100297.00;;;10.90
13570;BMP180;6856;51.460;7.158;2023-12-20T03:20:34;100295.00;;;10.90
13570;BMP180;6856;51.460;7.158;2023-12-20T03:23:08;100294.00;;;10.90
13570;BMP180;6856;51.460;7.158;2023-12-20T03:25:45;100297.00;;;10.90
13570;BMP180;6856;51.460;7.158;2023-12-20T03:28:19;100290.00;;;10.80
13570;BMP180;6856;51.460;7.158;2023-12-20T03:30:53;100297.00;;;10.80
13570;BMP180;6856;51.460;7.158;2023-12-20T03:33:27;100295.00;;;10.80
13570;BMP180;6856;51.460;7.158;2023-12-20T03:36:01;100294.00;;;10.80
13570;BMP180;6856;51.460;7.158;2023-12-20T03:38:37;100293.00;;;10.80
13570;BMP180;6856;51.460;7.158;2023-12-20T03:41:13;100290.00;;;10.70
13570;BMP180;6856;51.460;7.158;2023-12-20T03:43:47;100285.00;;;10.70
13570;BMP180;6856;51.460;7.158;2023-12-20T03:46:21;100274.00;;;10.70
13570;BMP180;6856;51.460;7.158;2023-12-20T03:48:55;100283.00;;;10.70
13570;BMP180;6856;51.460;7.158;2023-12-20T03:51:30;100276.00;;;10.60
13570;BMP180;6856;51.460;7.158;2023-12-20T03:54:04;100283.00;;;10.60
13570;BMP180;6856;51.460;7.158;2023-12-20T03:56:40;100263.00;;;10.60
13570;BMP180;6856;51.460;7.158;2023-12-20T03:59:14;100288.00;;;10.60
13570;BMP180;6856;51.460;7.158;2023-12-20T04:01:51;100285.00;;;10.50
13570;BMP180;6856;51.460;7.158;2023-12-20T04:04:25;100268.00;;;10.50
13570;BMP180;6856;51.460;7.158;2023-12-20T04:07:03;100282.00;;;10.50
13570;BMP180;6856;51.460;7.158;2023-12-20T04:09:40;100285.00;;;10.50
13570;BMP180;6856;51.460;7.158;2023-12-20T04:12:16;100250.00;;;10.50
13570;BMP180;6856;51.460;7.158;2023-12-20T04:14:50;100265.00;;;10.50
13570;BMP180;6856;51.460;7.158;2023-12-20T04:17:24;100245.00;;;10.40
13570;BMP180;6856;51.460;7.158;2023-12-20T04:20:02;100267.00;;;10.40
13570;BMP180;6856;51.460;7.158;2023-12-20T04:22:39;100262.00;;;10.40
13570;BMP180;6856;51.460;7.158;2023-12-20T04:25:13;100264.00;;;10.40
13570;BMP180;6856;51.460;7.158;2023-12-20T04:27:52;100272.00;;;10.30
13570;BMP180;6856;51.460;7.158;2023-12-20T04:30:26;100282.00;;;10.30
13570;BMP180;6856;51.460;7.158;2023-12-20T04:33:00;100286.00;;;10.30
13570;BMP180;6856;51.460;7.158;2023-12-20T04:35:36;100280.00;;;10.30
13570;BMP180;6856;51.460;7.158;2023-12-20T04:38:09;100284.00;;;10.30
13570;BMP180;6856;51.460;7.158;2023-12-20T04:40:45;100276.00;;;10.30
13570;BMP180;6856;51.460;7.158;2023-12-20T04:43:23;100291.00;;;10.30
13570;BMP180;6856;51.460;7.158;2023-12-20T04:45:57;100292.00;;;10.20
13570;BMP180;6856;51.460;7.158;2023-12-20T04:48:31;100289.00;;;10.20
13570;BMP180;6856;51.460;7.158;2023-12-20T04:51:08;100285.00;;;10.20
13570;BMP180;6856;51.460;7.158;2023-12-20T04:53:42;100276.00;;;10.20
13570;BMP180;6856;51.460;7.158;2023-12-20T04:56:16;100278.00;;;10.20
13570;BMP180;6856;51.460;7.158;2023-12-20T04:58:54;100287.00;;;10.20
13570;BMP180;6856;51.460;7.158;2023-12-20T05:01:28;100306.00;;;10.10
13570;BMP180;6856;51.460;7.158;2023-12-20T05:04:03;100299.00;;;10.10
13570;BMP180;6856;51.460;7.158;2023-12-20T05:06:39;100282.00;;;10.10
13570;BMP180;6856;51.460;7.158;2023-12-20T05:09:13;100301.00;;;10.10
13570;BMP180;6856;51.460;7.158;2023-12-20T05:11:49;100289.00;;;10.10
13570;BMP180;6856;51.460;7.158;2023-12-20T05:14:29;100297.00;;;10.10
13570;BMP180;6856;51.460;7.158;2023-12-20T05:17:03;100297.00;;;10.10
13570;BMP180;6856;51.460;7.158;2023-12-20T05:19:37;100288.00;;;10.10
13570;BMP180;6856;51.460;7.158;2023-12-20T05:22:12;100285.00;;;10.10
13570;BMP180;6856;51.460;7.158;2023-12-20T05:24:45;100294.00;;;10.10
13570;BMP180;6856;51.460;7.158;2023-12-20T05:27:19;100288.00;;;10.00
13570;BMP180;6856;51.460;7.158;2023-12-20T05:29:55;100290.00;;;10.00
13570;BMP180;6856;51.460;7.158;2023-12-20T05:32:31;100283.00;;;10.00
13570;BMP180;6856;51.460;7.158;2023-12-20T05:35:07;100280.00;;;10.00
13570;BMP180;6856;51.460;7.158;2023-12-20T05:37:42;100254.00;;;10.00
13570;BMP180;6856;51.460;7.158;2023-12-20T05:40:16;100268.00;;;10.00
13570;BMP180;6856;51.460;7.158;2023-12-20T05:42:51;100271.00;;;10.00
13570;BMP180;6856;51.460;7.158;2023-12-20T05:45:26;100280.00;;;10.00
13570;BMP180;6856;51.460;7.158;2023-12-20T05:48:02;100262.00;;;10.00
13570;BMP180;6856;51.460;7.158;2023-12-20T05:50:36;100252.00;;;10.00
13570;BMP180;6856;51.460;7.158;2023-12-20T05:53:10;100268.00;;;10.00
13570;BMP180;6856;51.460;7.158;2023-12-20T05:55:43;100271.00;;;10.00
13570;BMP180;6856;51.460;7.158;2023-12-20T05:58:24;100261.00;;;10.00
13570;BMP180;6856;51.460;7.158;2023-12-20T06:01:00;100277.00;;;10.00
13570;BMP180;6856;51.460;7.158;2023-12-20T06:03:34;100276.00;;;10.00
13570;BMP180;6856;51.460;7.158;2023-12-20T06:06:09;100281.00;;;10.00
13570;BMP180;6856;51.460;7.158;2023-12-20T06:08:48;100268.00;;;10.00
13570;BMP180;6856;51.460;7.158;2023-12-20T06:11:23;100265.00;;;9.90
13570;BMP180;6856;51.460;7.158;2023-12-20T06:13:57;100278.00;;;9.90
13570;BMP180;6856;51.460;7.158;2023-12-20T06:16:35;100280.00;;;9.90
13570;BMP180;6856;51.460;7.158;2023-12-20T06:19:09;100274.00;;;9.90
13570;BMP180;6856;51.460;7.158;2023-12-20T06:21:42;100282.00;;;9.90
13570;BMP180;6856;51.460;7.158;2023-12-20T06:24:17;100278.00;;;9.90
13570;BMP180;6856;51.460;7.158;2023-12-20T06:26:50;100254.00;;;9.90
13570;BMP180;6856;51.460;7.158;2023-12-20T06:29:24;100272.00;;;9.90
13570;BMP180;6856;51.460;7.158;2023-12-20T06:32:00;100271.00;;;9.90
13570;BMP180;6856;51.460;7.158;2023-12-20T06:34:34;100283.00;;;9.90
13570;BMP180;6856;51.460;7.158;2023-12-20T06:37:07;100272.00;;;9.90
13570;BMP180;6856;51.460;7.158;2023-12-20T06:39:42;100274.00;;;9.90
13570;BMP180;6856;51.460;7.158;2023-12-20T06:42:16;100268.00;;;9.90
13570;BMP180;6856;51.460;7.158;2023-12-20T06:44:49;100266.00;;;9.90
13570;BMP180;6856;51.460;7.158;2023-12-20T06:47:25;100272.00;;;9.90
13570;BMP180;6856;51.460;7.158;2023-12-20T06:50:01;100270.00;;;9.90
13570;BMP180;6856;51.460;7.158;2023-12-20T06:52:35;100278.00;;;9.90
13570;BMP180;6856;51.460;7.158;2023-12-20T06:55:10;100272.00;;;9.90
13570;BMP180;6856;51.460;7.158;2023-12-20T06:57:43;100269.00;;;9.90
13570;BMP180;6856;51.460;7.158;2023-12-20T07:00:18;100275.00;;;9.90
13570;BMP180;6856;51.460;7.158;2023-12-20T07:02:54;100285.00;;;9.90
13570;BMP180;6856;51.460;7.158;2023-12-20T07:05:29;100269.00;;;10.00
13570;BMP180;6856;51.460;7.158;2023-12-20T07:08:03;100271.00;;;9.90
13570;BMP180;6856;51.460;7.158;2023-12-20T07:10:37;100272.00;;;9.90
13570;BMP180;6856;51.460;7.158;2023-12-20T07:13:11;100276.00;;;9.90
13570;BMP180;6856;51.460;7.158;2023-12-20T07:15:47;100263.00;;;9.90
13570;BMP180;6856;51.460;7.158;2023-12-20T07:18:23;100263.00;;;10.00
13570;BMP180;6856;51.460;7.158;2023-12-20T07:20:57;100263.00;;;9.90
13570;BMP180;6856;51.460;7.158;2023-12-20T07:23:32;100268.00;;;10.00
13570;BMP180;6856;51.460;7.158;2023-12-20T07:26:06;100266.00;;;9.90
13570;BMP180;6856;51.460;7.158;2023-12-20T07:28:40;100266.00;;;9.90
13570;BMP180;6856;51.460;7.158;2023-12-20T07:31:15;100261.00;;;10.00
13570;BMP180;6856;51.460;7.158;2023-12-20T07:33:52;100269.00;;;9.90
13570;BMP180;6856;51.460;7.158;2023-12-20T07:36:27;100269.00;;;10.00
13570;BMP180;6856;51.460;7.158;2023-12-20T07:39:03;100268.00;;;10.00
13570;BMP180;6856;51.460;7.158;2023-12-20T07:41:38;100279.00;;;10.00
13570;BMP180;6856;51.460;7.158;2023-12-20T07:44:13;100267.00;;;10.00
13570;BMP180;6856;51.460;7.158;2023-12-20T07:46:48;100290.00;;;9.90
13570;BMP180;6856;51.460;7.158;2023-12-20T07:49:24;100287.00;;;10.00
13570;BMP180;6856;51.460;7.158;2023-12-20T07:51:58;100283.00;;;10.00
13570;BMP180;6856;51.460;7.158;2023-12-20T07:54:32;100285.00;;;10.00
13570;BMP180;6856;51.460;7.158;2023-12-20T07:57:07;100286.00;;;10.00
13570;BMP180;6856;51.460;7.158;2023-12-20T07:59:42;100277.00;;;10.00
13570;BMP180;6856;51.460;7.158;2023-12-20T08:02:17;100263.00;;;10.00
13570;BMP180;6856;51.460;7.158;2023-12-20T08:04:55;100251.00;;;10.10
13570;BMP180;6856;51.460;7.158;2023-12-20T08:07:28;100262.00;;;10.00
13570;BMP180;6856;51.460;7.158;2023-12-20T08:10:05;100274.00;;;10.10
13570;BMP180;6856;51.460;7.158;2023-12-20T08:12:43;100266.00;;;10.00
13570;BMP180;6856;51.460;7.158;2023-12-20T08:15:16;100281.00;;;10.00
13570;BMP180;6856;51.460;7.158;2023-12-20T08:17:50;100277.00;;;10.00
13570;BMP180;6856;51.460;7.158;2023-12-20T08:20:27;100267.00;;;10.00
13570;BMP180;6856;51.460;7.158;2023-12-20T08:23:12;100272.00;;;10.10
13570;BMP180;6856;51.460;7.158;2023-12-20T08:25:47;100274.00;;;10.10
13570;BMP180;6856;51.460;7.158;2023-12-20T08:28:21;100277.00;;;10.10
13570;BMP180;6856;51.460;7.158;2023-12-20T08:30:56;100280.00;;;10.10
13570;BMP180;6856;51.460;7.158;2023-12-20T08:33:30;100269.00;;;10.10
13570;BMP180;6856;51.460;7.158;2023-12-20T08:36:07;100282.00;;;10.10
13570;BMP180;6856;51.460;7.158;2023-12-20T08:38:41;100276.00;;;10.10
13570;BMP180;6856;51.460;7.158;2023-12-20T08:41:16;100285.00;;;10.10
13570;BMP180;6856;51.460;7.158;2023-12-20T08:43:51;100292.00;;;10.10
13570;BMP180;6856;51.460;7.158;2023-12-20T08:46:26;100274.00;;;10.10
13570;BMP180;6856;51.460;7.158;2023-12-20T08:49:00;100262.00;;;10.10
13570;BMP180;6856;51.460;7.158;2023-12-20T08:51:36;100292.00;;;10.10
13570;BMP180;6856;51.460;7.158;2023-12-20T08:54:12;100281.00;;;10.10
13570;BMP180;6856;51.460;7.158;2023-12-20T08:56:46;100272.00;;;10.20
13570;BMP180;6856;51.460;7.158;2023-12-20T08:59:21;100274.00;;;10.20
13570;BMP180;6856;51.460;7.158;2023-12-20T09:01:56;100277.00;;;10.20
13570;BMP180;6856;51.460;7.158;2023-12-20T09:04:33;100256.00;;;10.20
13570;BMP180;6856;51.460;7.158;2023-12-20T09:07:21;100267.00;;;10.20
13570;BMP180;6856;51.460;7.158;2023-12-20T09:09:56;100280.00;;;10.20
13570;BMP180;6856;51.460;7.158;2023-12-20T09:12:31;100271.00;;;10.20
13570;BMP180;6856;51.460;7.158;2023-12-20T09:15:05;100271.00;;;10.20
13570;BMP180;6856;51.460;7.158;2023-12-20T09:17:39;100269.00;;;10.20
13570;BMP180;6856;51.460;7.158;2023-12-20T09:20:14;100273.00;;;10.20
13570;BMP180;6856;51.460;7.158;2023-12-20T09:22:50;100263.00;;;10.20
13570;BMP180;6856;51.460;7.158;2023-12-20T09:25:24;100268.00;;;10.20
13570;BMP180;6856;51.460;7.158;2023-12-20T09:28:00;100266.00;;;10.20
13570;BMP180;6856;51.460;7.158;2023-12-20T09:30:34;100268.00;;;10.20
13570;BMP180;6856;51.460;7.158;2023-12-20T09:33:13;100275.00;;;10.20
13570;BMP180;6856;51.460;7.158;2023-12-20T09:35:51;100241.00;;;10.20
13570;BMP180;6856;51.460;7.158;2023-12-20T09:38:28;100266.00;;;10.30
13570;BMP180;6856;51.460;7.158;2023-12-20T09:41:04;100255.00;;;10.30
13570;BMP180;6856;51.460;7.158;2023-12-20T09:43:42;100256.00;;;10.30
13570;BMP180;6856;51.460;7.158;2023-12-20T09:46:24;100264.00;;;10.30
13570;BMP180;6856;51.460;7.158;2023-12-20T09:49:00;100259.00;;;10.30
13570;BMP180;6856;51.460;7.158;2023-12-20T09:51:36;100273.00;;;10.30
13570;BMP180;6856;51.460;7.158;2023-12-20T09:54:12;100273.00;;;10.30
13570;BMP180;6856;51.460;7.158;2023-12-20T09:56:48;100267.00;;;10.30
13570;BMP180;6856;51.460;7.158;2023-12-20T09:59:22;100255.00;;;10.30
13570;BMP180;6856;51.460;7.158;2023-12-20T10:01:56;100255.00;;;10.30
13570;BMP180;6856;51.460;7.158;2023-12-20T10:04:32;100255.00;;;10.30
13570;BMP180;6856;51.460;7.158;2023-12-20T10:07:07;100266.00;;;10.20
13570;BMP180;6856;51.460;7.158;2023-12-20T10:09:44;100254.00;;;10.40
13570;BMP180;6856;51.460;7.158;2023-12-20T10:12:19;100234.00;;;10.40
13570;BMP180;6856;51.460;7.158;2023-12-20T10:14:57;100250.00;;;10.40
13570;BMP180;6856;51.460;7.158;2023-12-20T10:17:33;100252.00;;;10.40
13570;BMP180;6856;51.460;7.158;2023-12-20T10:20:10;100243.00;;;10.40
13570;BMP180;6856;51.460;7.158;2023-12-20T10:22:44;100236.00;;;10.40
13570;BMP180;6856;51.460;7.158;2023-12-20T10:25:20;100243.00;;;10.40
13570;BMP180;6856;51.460;7.158;2023-12-20T10:28:10;100239.00;;;10.40
13570;BMP180;6856;51.460;7.158;2023-12-20T10:30:48;100243.00;;;10.40
13570;BMP180;6856;51.460;7.158;2023-12-20T10:33:27;100235.00;;;10.40
13570;BMP180;6856;51.460;7.158;2023-12-20T10:36:03;100237.00;;;10.50
13570;BMP180;6856;51.460;7.158;2023-12-20T10:38:42;100238.00;;;10.50
13570;BMP180;6856;51.460;7.158;2023-12-20T10:41:25;100222.00;;;10.40
13570;BMP180;6856;51.460;7.158;2023-12-20T10:44:02;100225.00;;;10.50
13570;BMP180;6856;51.460;7.158;2023-12-20T10:46:40;100225.00;;;10.50
13570;BMP180;6856;51.460;7.158;2023-12-20T10:49:20;100235.00;;;10.50
13570;BMP180;6856;51.460;7.158;2023-12-20T10:52:01;100233.00;;;10.40
13570;BMP180;6856;51.460;7.158;2023-12-20T10:54:40;100221.00;;;10.50
13570;BMP180;6856;51.460;7.158;2023-12-20T10:57:18;100190.00;;;10.50
13570;BMP180;6856;51.460;7.158;2023-12-20T10:59:56;100196.00;;;10.50
13570;BMP180;6856;51.460;7.158;2023-12-20T11:02:40;100232.00;;;10.50
13570;BMP180;6856;51.460;7.158;2023-12-20T11:05:26;100226.00;;;10.50
13570;BMP180;6856;51.460;7.158;2023-12-20T11:08:13;100226.00;;;10.50
13570;BMP180;6856;51.460;7.158;2023-12-20T11:10:59;100233.00;;;10.50
13570;BMP180;6856;51.460;7.158;2023-12-20T11:13:53;100237.00;;;10.50
13570;BMP180;6856;51.460;7.158;2023-12-20T11:16:36;100218.00;;;10.50
13570;BMP180;6856;51.460;7.158;2023-12-20T11:19:25;100217.00;;;10.50
13570;BMP180;6856;51.460;7.158;2023-12-20T11:22:00;100226.00;;;10.50
13570;BMP180;6856;51.460;7.158;2023-12-20T11:24:44;100221.00;;;10.50
13570;BMP180;6856;51.460;7.158;2023-12-20T11:27:19;100224.00;;;10.50
13570;BMP180;6856;51.460;7.158;2023-12-20T11:29:58;100223.00;;;10.50
13570;BMP180;6856;51.460;7.158;2023-12-20T11:32:36;100221.00;;;10.60
13570;BMP180;6856;51.460;7.158;2023-12-20T11:35:20;100216.00;;;10.60
13570;BMP180;6856;51.460;7.158;2023-12-20T11:37:57;100217.00;;;10.60
13570;BMP180;6856;51.460;7.158;2023-12-20T11:40:34;100217.00;;;10.60
13570;BMP180;6856;51.460;7.158;2023-12-20T11:43:09;100186.00;;;10.60
13570;BMP180;6856;51.460;7.158;2023-12-20T11:45:51;100166.00;;;10.60
13570;BMP180;6856;51.460;7.158;2023-12-20T11:48:25;100208.00;;;10.70
13570;BMP180;6856;51.460;7.158;2023-12-20T11:51:01;100209.00;;;10.70
13570;BMP180;6856;51.460;7.158;2023-12-20T11:53:36;100201.00;;;10.70
13570;BMP180;6856;51.460;7.158;2023-12-20T11:56:11;100199.00;;;10.70
13570;BMP180;6856;51.460;7.158;2023-12-20T11:58:45;100189.00;;;10.70
13570;BMP180;6856;51.460;7.158;2023-12-20T12:01:25;100200.00;;;10.70
13570;BMP180;6856;51.460;7.158;2023-12-20T12:04:04;100192.00;;;10.70
13570;BMP180;6856;51.460;7.158;2023-12-20T12:06:43;100197.00;;;10.70
13570;BMP180;6856;51.460;7.158;2023-12-20T12:09:17;100180.00;;;10.70
13570;BMP180;6856;51.460;7.158;2023-12-20T12:11:57;100179.00;;;10.70
13570;BMP180;6856;51.460;7.158;2023-12-20T12:14:35;100176.00;;;10.70
13570;BMP180;6856;51.460;7.158;2023-12-20T12:17:13;100167.00;;;10.70
13570;BMP180;6856;51.460;7.158;2023-12-20T12:19:49;100162.00;;;10.70
13570;BMP180;6856;51.460;7.158;2023-12-20T12:22:26;100154.00;;;10.70
13570;BMP180;6856;51.460;7.158;2023-12-20T12:25:12;100158.00;;;10.70
13570;BMP180;6856;51.460;7.158;2023-12-20T12:27:51;100162.00;;;10.70
13570;BMP180;6856;51.460;7.158;2023-12-20T12:30:25;100140.00;;;10.70
13570;BMP180;6856;51.460;7.158;2023-12-20T12:33:08;100164.00;;;10.70
13570;BMP180;6856;51.460;7.158;2023-12-20T12:35:42;100172.00;;;10.70
13570;BMP180;6856;51.460;7.158;2023-12-20T12:38:20;100162.00;;;10.70
13570;BMP180;6856;51.460;7.158;2023-12-20T12:40:55;100168.00;;;10.70
13570;BMP180;6856;51.460;7.158;2023-12-20T12:43:29;100155.00;;;10.70
13570;BMP180;6856;51.460;7.158;2023-12-20T12:46:06;100166.00;;;10.70
13570;BMP180;6856;51.460;7.158;2023-12-20T12:48:41;100146.00;;;10.70
13570;BMP180;6856;51.460;7.158;2023-12-20T12:51:18;100150.00;;;10.70
13570;BMP180;6856;51.460;7.158;2023-12-20T12:53:53;100098.00;;;10.70
13570;BMP180;6856;51.460;7.158;2023-12-20T12:56:27;100141.00;;;10.70
13570;BMP180;6856;51.460;7.158;2023-12-20T12:59:03;100130.00;;;10.70
13570;BMP180;6856;51.460;7.158;2023-12-20T13:01:38;100144.00;;;10.70
13570;BMP180;6856;51.460;7.158;2023-12-20T13:04:16;100144.00;;;10.70
13570;BMP180;6856;51.460;7.158;2023-12-20T13:06:52;100134.00;;;10.70
13570;BMP180;6856;51.460;7.158;2023-12-20T13:09:27;100135.00;;;10.80
13570;BMP180;6856;51.460;7.158;2023-12-20T13:12:03;100136.00;;;10.80
13570;BMP180;6856;51.460;7.158;2023-12-20T13:14:37;100123.00;;;10.70
13570;BMP180;6856;51.460;7.158;2023-12-20T13:17:10;100101.00;;;10.80
13570;BMP180;6856;51.460;7.158;2023-12-20T13:19:49;100094.00;;;10.80
13570;BMP180;6856;51.460;7.158;2023-12-20T13:22:23;100090.00;;;10.80
13570;BMP180;6856;51.460;7.158;2023-12-20T13:24:57;100092.00;;;10.80
13570;BMP180;6856;51.460;7.158;2023-12-20T13:27:31;100095.00;;;10.80
13570;BMP180;6856;51.460;7.158;2023-12-20T13:30:07;100097.00;;;10.80
13570;BMP180;6856;51.460;7.158;2023-12-20T13:32:41;100096.00;;;10.80
13570;BMP180;6856;51.460;7.158;2023-12-20T13:35:17;100082.00;;;10.80
13570;BMP180;6856;51.460;7.158;2023-12-20T13:37:51;100098.00;;;10.80
13570;BMP180;6856;51.460;7.158;2023-12-20T13:40:28;100076.00;;;10.80
13570;BMP180;6856;51.460;7.158;2023-12-20T13:43:04;100094.00;;;10.80
13570;BMP180;6856;51.460;7.158;2023-12-20T13:45:39;100096.00;;;10.80
13570;BMP180;6856;51.460;7.158;2023-12-20T13:48:12;100091.00;;;10.80
13570;BMP180;6856;51.460;7.158;2023-12-20T13:50:49;100094.00;;;10.80
13570;BMP180;6856;51.460;7.158;2023-12-20T13:53:22;100094.00;;;10.80
13570;BMP180;6856;51.460;7.158;2023-12-20T13:55:57;100081.00;;;10.80
13570;BMP180;6856;51.460;7.158;2023-12-20T13:58:32;100073.00;;;10.80
13570;BMP180;6856;51.460;7.158;2023-12-20T14:01:10;100074.00;;;10.80
13570;BMP180;6856;51.460;7.158;2023-12-20T14:03:44;100076.00;;;10.80
13570;BMP180;6856;51.460;7.158;2023-12-20T14:06:20;100075.00;;;10.80
13570;BMP180;6856;51.460;7.158;2023-12-20T14:08:56;100074.00;;;10.80
13570;BMP180;6856;51.460;7.158;2023-12-20T14:11:30;100064.00;;;10.80
13570;BMP180;6856;51.460;7.158;2023-12-20T14:14:04;100044.00;;;10.80
13570;BMP180;6856;51.460;7.158;2023-12-20T14:16:40;100079.00;;;10.80
13570;BMP180;6856;51.460;7.158;2023-12-20T14:19:18;100064.00;;;10.70
13570;BMP180;6856;51.460;7.158;2023-12-20T14:21:55;100073.00;;;10.80
13570;BMP180;6856;51.460;7.158;2023-12-20T14:24:30;100067.00;;;10.70
13570;BMP180;6856;51.460;7.158;2023-12-20T14:27:05;100064.00;;;10.70
13570;BMP180;6856;51.460;7.158;2023-12-20T14:29:38;100054.00;;;10.70
13570;BMP180;6856;51.460;7.158;2023-12-20T14:32:13;100058.00;;;10.70
13570;BMP180;6856;51.460;7.158;2023-12-20T14:34:50;100045.00;;;10.70
13570;BMP180;6856;51.460;7.158;2023-12-20T14:37:25;100079.00;;;10.70
13570;BMP180;6856;51.460;7.158;2023-12-20T14:40:00;100075.00;;;10.70
13570;BMP180;6856;51.460;7.158;2023-12-20T14:42:35;100051.00;;;10.70
13570;BMP180;6856;51.460;7.158;2023-12-20T14:45:10;100067.00;;;10.70
13570;BMP180;6856;51.460;7.158;2023-12-20T14:47:47;100076.00;;;10.70
13570;BMP180;6856;51.460;7.158;2023-12-20T14:50:22;100080.00;;;10.70
13570;BMP180;6856;51.460;7.158;2023-12-20T14:52:59;100085.00;;;10.70
13570;BMP180;6856;51.460;7.158;2023-12-20T14:55:33;100079.00;;;10.70
13570;BMP180;6856;51.460;7.158;2023-12-20T14:58:07;100067.00;;;10.70